Briefing drone pour Chabris

Rechercher une autre localisation

Conditions de vol :


Nous sommes le : Samedi 23 octobre 2021
Il est 01:32 UTC (03:32 LT)

Lever de soleil : 05:57 UTC (07:57 LT)
Coucher de soleil : 17:18 UTC (19:18 LT)

Météo

L'essentiel des conditions de vol

VIGILANCE MÉTÉO FRANCE - Indre (36)
Pas de vigilances particulieres
CARTE TEMSI
CARTES DES FRONTS
METAR de LFYR
LFYR 230100Z AUTO 21001KT 9999 OVC047 05/05 Q1027

Date d'émission: 23/10/2021
Heure d'émission: 01:00 UTC
Vent: 210° pour 1 KT (2 km/h)
Visibilité horizontale: > 10 km
Plafond :
- Couvert à 4700ft (1433m)
Température: 5 °C
Point de rosée: 5 °C
Humidité: 100%
Pression (QNH): 1027 hPa
TAF de LFYR
AMD LFYR 221400Z 2214/2309 CNL

Conditions prévues :

Heure d'émission : Bulletin éffectué le 22 à 14:00 UTC
Prévision : Valide du 22 a 14:00 UTC au 23 a 09:00 UTC
Nuages : à 0ft (0 m)
WEBCAM POUR CHABRIS

Réglementation

Voler en sécurité

CARTES AERONAUTIQUE 1/500.000
CARTES VAC (LFYR)
SUP AIP




Chargement des AIP...
NOTAM (CHABRIS + Terrain à proximité / FIR )




Chargement des NOTAMS...
CONTACT PREFECTURE 36


Avertissement : Les données mises à disposition sont indicatives. Oxygène Drone ne pourra être tenu responsable de dégâts causés aux biens et aux personnes.